createdAt,value
2024-01-17T00:04:19.655Z,-3.23
2024-01-17T00:09:20.861Z,-3.21
2024-01-17T00:14:22.145Z,-3.18
2024-01-17T00:19:23.387Z,-3.26
2024-01-17T00:24:24.609Z,-3.38
2024-01-17T00:29:25.863Z,-3.35
2024-01-17T00:34:27.270Z,-3.38
2024-01-17T00:39:28.537Z,-3.31
2024-01-17T00:44:30.526Z,-3.33
2024-01-17T00:49:31.839Z,-3.33
2024-01-17T00:54:33.206Z,-3.36
2024-01-17T00:59:34.529Z,-3.53
2024-01-17T01:04:35.812Z,-3.64
2024-01-17T01:09:37.311Z,-3.59
2024-01-17T01:14:38.827Z,-3.60
2024-01-17T01:19:40.216Z,-3.61
2024-01-17T01:24:41.539Z,-3.80
2024-01-17T01:29:42.854Z,-3.69
2024-01-17T01:34:44.468Z,-3.74
2024-01-17T01:39:45.847Z,-3.83
2024-01-17T01:44:47.176Z,-3.90
2024-01-17T01:49:49.380Z,-3.89
2024-01-17T01:54:50.606Z,-3.82
2024-01-17T01:59:51.870Z,-3.83
2024-01-17T02:04:53.174Z,-3.67
2024-01-17T02:09:54.488Z,-3.72
2024-01-17T02:14:55.793Z,-3.86
2024-01-17T02:19:57.005Z,-3.87
2024-01-17T02:24:58.236Z,-3.88
2024-01-17T02:29:59.482Z,-3.91
2024-01-17T02:35:00.788Z,-3.93
2024-01-17T02:40:02.062Z,-3.79
2024-01-17T02:45:03.364Z,-3.66
2024-01-17T02:50:05.041Z,-3.57
2024-01-17T02:55:06.285Z,-3.51
2024-01-17T03:00:09.463Z,-3.53
2024-01-17T03:05:10.854Z,-3.49
2024-01-17T03:10:13.496Z,-3.47
2024-01-17T03:15:14.893Z,-3.47
2024-01-17T03:20:16.158Z,-3.68
2024-01-17T03:25:17.359Z,-3.46
2024-01-17T03:30:18.757Z,-3.37
2024-01-17T03:35:20.054Z,-3.22
2024-01-17T03:40:21.256Z,-3.09
2024-01-17T03:45:22.497Z,-3.02
2024-01-17T03:50:25.332Z,-2.92
2024-01-17T03:55:26.565Z,-2.83
2024-01-17T04:00:27.762Z,-2.72
2024-01-17T04:05:29.086Z,-2.58
2024-01-17T04:10:30.317Z,-2.65
2024-01-17T04:15:31.671Z,-2.58
2024-01-17T04:20:33.551Z,-2.77
2024-01-17T04:25:34.913Z,-2.83
2024-01-17T04:30:36.228Z,-2.60
2024-01-17T04:35:37.979Z,-2.36
2024-01-17T04:40:39.184Z,-2.29
2024-01-17T04:45:40.374Z,-2.23
2024-01-17T04:50:41.678Z,-2.13
2024-01-17T04:55:43.008Z,-2.45
2024-01-17T05:00:44.280Z,-2.37
2024-01-17T05:05:45.727Z,-2.15
2024-01-17T05:10:47.019Z,-2.28
2024-01-17T05:15:48.300Z,-2.24
2024-01-17T05:20:49.607Z,-2.54
2024-01-17T05:25:50.867Z,-2.51
2024-01-17T05:30:52.181Z,-2.34
2024-01-17T05:35:53.634Z,-2.24
2024-01-17T05:40:54.857Z,-2.03
2024-01-17T05:45:58.934Z,-1.77
2024-01-17T05:51:00.312Z,-1.61
2024-01-17T05:56:03.715Z,-1.41
2024-01-17T06:01:05.916Z,-1.33
2024-01-17T06:06:07.445Z,-1.18
2024-01-17T06:11:08.773Z,-1.25
2024-01-17T06:16:10.046Z,-1.10
2024-01-17T06:21:11.366Z,-1.48
2024-01-17T06:26:12.641Z,-1.34
2024-01-17T06:31:13.984Z,-2.00
2024-01-17T06:36:15.227Z,-1.97
2024-01-17T06:41:16.508Z,-1.94
2024-01-17T06:46:17.803Z,-1.59
2024-01-17T06:51:19.117Z,-1.73
2024-01-17T06:56:20.347Z,-1.77
2024-01-17T07:01:21.882Z,-1.77
2024-01-17T07:06:23.476Z,-1.73
2024-01-17T07:11:24.988Z,-1.61
2024-01-17T07:16:26.463Z,-1.98
2024-01-17T07:21:27.930Z,-1.75
2024-01-17T07:26:29.473Z,-1.81
2024-01-17T07:31:30.845Z,-1.59
2024-01-17T07:36:32.289Z,-1.34
2024-01-17T07:41:33.740Z,-1.99
2024-01-17T07:46:35.036Z,-2.08
2024-01-17T07:51:36.249Z,-2.30
2024-01-17T07:56:37.457Z,-2.28
2024-01-17T08:01:38.896Z,-2.25
2024-01-17T08:06:40.782Z,-1.95
2024-01-17T08:11:42.184Z,-1.99
2024-01-17T08:16:43.484Z,-2.08
2024-01-17T08:21:44.799Z,-1.88
2024-01-17T08:26:46.104Z,-1.95
2024-01-17T08:31:47.434Z,-1.87
2024-01-17T08:36:48.749Z,-1.92
2024-01-17T08:41:50.057Z,-1.80
2024-01-17T08:46:52.308Z,-1.71
2024-01-17T08:51:53.530Z,-1.81
2024-01-17T08:56:54.800Z,-1.68
2024-01-17T09:01:57.799Z,-1.32
2024-01-17T09:06:59.262Z,-1.13
2024-01-17T09:12:00.814Z,-1.13
2024-01-17T09:17:04.365Z,-1.37
2024-01-17T09:22:05.688Z,-1.44
2024-01-17T09:27:07.065Z,-1.31
2024-01-17T09:32:08.440Z,-1.50
2024-01-17T09:37:11.029Z,-1.46
2024-01-17T09:42:12.328Z,-1.29
2024-01-17T09:47:13.766Z,-1.13
2024-01-17T09:52:18.817Z,-1.00
2024-01-17T09:57:20.665Z,-1.27
2024-01-17T10:02:22.220Z,-1.07
2024-01-17T10:07:23.486Z,-1.08
2024-01-17T10:12:24.860Z,-1.24
2024-01-17T10:17:26.121Z,-1.18
2024-01-17T10:22:27.405Z,-1.04
2024-01-17T10:27:28.694Z,-0.91
2024-01-17T10:32:31.877Z,-0.83
2024-01-17T10:37:36.226Z,-0.58
2024-01-17T10:42:37.533Z,-0.27
2024-01-17T10:47:39.741Z,-0.26
2024-01-17T10:52:42.172Z,0.27
2024-01-17T10:57:43.535Z,-0.16
2024-01-17T11:02:45.500Z,0.04
2024-01-17T11:07:46.912Z,-0.18
2024-01-17T11:12:48.301Z,-0.15
2024-01-17T11:17:50.469Z,-0.14
2024-01-17T11:22:52.032Z,-0.14
2024-01-17T11:27:53.470Z,-0.35
2024-01-17T11:32:57.196Z,-0.36
2024-01-17T11:37:59.781Z,-0.28
2024-01-17T11:43:01.130Z,-0.51
2024-01-17T11:48:02.417Z,-0.27
2024-01-17T11:53:03.679Z,0.06
2024-01-17T11:58:04.970Z,-0.06
2024-01-17T12:03:06.952Z,0.01
2024-01-17T12:08:08.363Z,0.25
2024-01-17T12:13:09.793Z,-0.04
2024-01-17T12:18:11.155Z,0.14
2024-01-17T12:23:12.580Z,0.95
2024-01-17T12:28:13.840Z,0.04
2024-01-17T12:33:15.205Z,-0.03
2024-01-17T12:38:16.642Z,-0.04
2024-01-17T12:43:18.004Z,-0.03
2024-01-17T12:48:19.590Z,0.18
2024-01-17T12:53:21.518Z,-0.11
2024-01-17T12:58:23.360Z,-0.14
2024-01-17T13:03:28.716Z,-0.52
2024-01-17T13:08:30.024Z,-0.21
2024-01-17T13:13:31.291Z,-0.34
2024-01-17T13:18:32.632Z,-0.27
2024-01-17T13:23:33.999Z,-0.15
2024-01-17T13:28:35.295Z,-0.27
2024-01-17T13:33:36.698Z,-0.17
2024-01-17T13:38:38.288Z,-0.03
2024-01-17T13:43:39.667Z,-0.01
2024-01-17T13:49:11.167Z,-0.13
2024-01-17T13:54:16.887Z,-0.12
2024-01-17T13:59:18.548Z,-0.10
2024-01-17T14:04:20.048Z,-0.32
2024-01-17T14:09:25.262Z,-0.09
2024-01-17T14:14:27.819Z,-0.06
2024-01-17T14:19:29.257Z,0.02
2024-01-17T14:24:30.841Z,0.00
2024-01-17T14:29:32.242Z,0.02
2024-01-17T14:34:33.685Z,0.02
2024-01-17T14:39:35.039Z,-0.09
2024-01-17T14:44:36.405Z,0.13
2024-01-17T14:49:37.858Z,0.45
2024-01-17T14:54:39.143Z,0.30
2024-01-17T14:59:40.747Z,0.23
2024-01-17T15:04:42.095Z,0.22
2024-01-17T15:09:49.122Z,0.14
2024-01-17T15:14:51.244Z,0.28
2024-01-17T15:19:52.670Z,0.28
2024-01-17T15:24:54.023Z,0.08
2024-01-17T15:29:58.469Z,0.05
2024-01-17T15:35:00.715Z,0.27
2024-01-17T15:40:02.446Z,0.14
2024-01-17T15:45:03.805Z,0.11
2024-01-17T15:50:05.226Z,0.11
2024-01-17T15:55:06.580Z,0.30
2024-01-17T16:00:10.548Z,0.04
2024-01-17T16:05:12.431Z,0.37
2024-01-17T16:10:13.772Z,0.34
2024-01-17T16:15:15.192Z,0.30
2024-01-17T16:20:21.495Z,0.35
2024-01-17T16:25:24.378Z,0.52
2024-01-17T16:30:28.181Z,0.50
2024-01-17T16:35:31.812Z,0.68
2024-01-17T16:40:40.621Z,0.50
2024-01-17T16:45:41.902Z,0.74
2024-01-17T16:50:45.426Z,0.59
2024-01-17T16:55:46.870Z,0.48
2024-01-17T17:00:48.150Z,0.55
2024-01-17T17:05:49.541Z,0.60
2024-01-17T17:10:50.890Z,0.63
2024-01-17T17:15:52.299Z,0.78
2024-01-17T17:20:53.721Z,0.88
2024-01-17T17:25:56.461Z,0.43
2024-01-17T17:30:57.753Z,0.65
2024-01-17T17:35:59.088Z,0.68
2024-01-17T17:41:00.380Z,0.58
2024-01-17T17:46:02.409Z,0.56
2024-01-17T17:51:09.459Z,0.79
2024-01-17T17:56:10.698Z,0.59
2024-01-17T18:01:12.196Z,0.56
2024-01-17T18:06:13.505Z,0.82
2024-01-17T18:11:16.548Z,0.71
2024-01-17T18:16:24.470Z,0.72
2024-01-17T18:21:25.891Z,0.87
2024-01-17T18:26:27.123Z,0.64
2024-01-17T18:31:28.478Z,0.83
2024-01-17T18:36:30.168Z,0.79
2024-01-17T18:41:31.728Z,0.89
2024-01-17T18:46:33.066Z,0.95
2024-01-17T18:51:34.347Z,0.92
2024-01-17T18:56:35.856Z,1.02
2024-01-17T19:01:38.322Z,1.02
2024-01-17T19:06:44.535Z,1.12
2024-01-17T19:11:46.437Z,1.03
2024-01-17T19:16:48.681Z,0.79
2024-01-17T19:21:49.904Z,0.87
2024-01-17T19:26:51.419Z,0.98
2024-01-17T19:31:54.522Z,1.20
2024-01-17T19:36:55.989Z,1.35
2024-01-17T19:41:57.227Z,1.27
2024-01-17T19:46:58.628Z,1.45
2024-01-17T19:52:00.006Z,1.33
2024-01-17T19:57:01.412Z,1.65
2024-01-17T20:02:02.926Z,1.76
2024-01-17T20:07:04.653Z,1.54
2024-01-17T20:12:06.035Z,1.66
2024-01-17T20:17:07.317Z,1.71
2024-01-17T20:22:08.632Z,1.73
2024-01-17T20:27:09.960Z,1.52
2024-01-17T20:32:11.242Z,1.98
2024-01-17T20:37:14.265Z,2.28
2024-01-17T20:42:17.381Z,2.42
2024-01-17T20:47:18.831Z,2.29
2024-01-17T20:52:20.151Z,2.40
2024-01-17T20:57:21.520Z,2.46
2024-01-17T21:02:22.840Z,2.43
2024-01-17T21:07:26.536Z,2.70
2024-01-17T21:12:29.235Z,2.87
2024-01-17T21:17:31.353Z,3.00
2024-01-17T21:22:32.634Z,3.11
2024-01-17T21:27:33.914Z,3.15
2024-01-17T21:32:35.310Z,3.16
2024-01-17T21:37:36.607Z,3.11
2024-01-17T21:42:37.931Z,3.00
2024-01-17T21:47:39.368Z,2.92
2024-01-17T21:52:40.671Z,2.79
2024-01-17T21:57:41.965Z,2.49
2024-01-17T22:02:43.264Z,2.56
2024-01-17T22:07:46.315Z,2.75
2024-01-17T22:12:47.614Z,2.58
2024-01-17T22:17:52.506Z,2.23
2024-01-17T22:22:53.858Z,2.00
2024-01-17T22:27:57.025Z,2.10
2024-01-17T22:32:58.470Z,2.18
2024-01-17T22:38:00.781Z,2.20
2024-01-17T22:43:04.716Z,2.23
2024-01-17T22:48:08.790Z,2.45
2024-01-17T22:53:14.101Z,2.59
2024-01-17T22:58:15.367Z,2.77
2024-01-17T23:03:16.918Z,2.91
2024-01-17T23:08:18.284Z,2.92
2024-01-17T23:13:24.509Z,3.10
2024-01-17T23:18:27.338Z,3.28
2024-01-17T23:23:28.646Z,3.03
2024-01-17T23:28:29.926Z,2.98
2024-01-17T23:33:31.689Z,2.63
2024-01-17T23:38:33.145Z,2.73
2024-01-17T23:43:34.492Z,2.82
2024-01-17T23:48:36.091Z,3.18
2024-01-17T23:53:37.397Z,3.20
2024-01-17T23:58:38.697Z,3.12
